La rose des vents
Donnes mto: Semaine 10/11/08 - 16/11/08 (S 46)
Date Horaire Temp. E. Hum. E. P.atmo. Pluie Vent 1mn Direction Ensoleilleme Ev.Tr. Solaire P. de rose Temp au vent Rafales
10/11/2008 00:00 10,5 C 88 % 1027,9 hPa 0,0 l/m 5,8 km/h (2 Bft) O 0,00 h 0,025 mm 0 W/m 8,7 C 10,5 C 8,5 km/h (2 Bft)
10/11/2008 01:00 10,3 C 86 % 1027,7 hPa 0,0 l/m 7,2 km/h (2 Bft) O-NO 0,00 h 0,025 mm 0 W/m 8,0 C 10,3 C 10,5 km/h (2 Bft)
10/11/2008 02:00 10,3 C 82 % 1027,7 hPa 0,0 l/m 6,5 km/h (2 Bft) O 0,00 h 0,025 mm 0 W/m 7,4 C 10,3 C 8,9 km/h (2 Bft)
10/11/2008 03:00 10,2 C 82 % 1027,4 hPa 0,0 l/m 4,2 km/h (1 Bft) NO 0,00 h 0,025 mm 0 W/m 7,3 C 10,2 C 5,8 km/h (2 Bft)
10/11/2008 04:00 10,3 C 83 % 1027,3 hPa 0,0 l/m 6,0 km/h (2 Bft) O-NO 0,00 h 0,025 mm 0 W/m 7,5 C 10,3 C 7,5 km/h (2 Bft)
10/11/2008 05:00 10,0 C 84 % 1027,3 hPa 0,0 l/m 4,6 km/h (1 Bft) O-NO 0,00 h 0,025 mm 0 W/m 7,4 C 9,9 C 6,4 km/h (2 Bft)
10/11/2008 06:00 9,7 C 85 % 1027,0 hPa 0,0 l/m 4,3 km/h (1 Bft) O-NO 0,00 h 0,025 mm 0 W/m 7,3 C 9,5 C 5,5 km/h (1 Bft)
10/11/2008 07:00 9,6 C 85 % 1027,5 hPa 0,0 l/m 4,2 km/h (1 Bft) O-NO 0,45 h 0,000 mm 24 W/m 7,2 C 9,4 C 5,7 km/h (1 Bft)
10/11/2008 08:00 11,1 C 83 % 1028,0 hPa 0,0 l/m 3,4 km/h (1 Bft) O-NO 0,88 h 0,025 mm 125 W/m 8,4 C 11,1 C 5,4 km/h (1 Bft)
10/11/2008 09:00 13,6 C 76 % 1028,2 hPa 0,0 l/m 0,1 km/h (0 Bft) O-NO 1,00 h 0,076 mm 269 W/m 9,5 C 13,6 C 0,3 km/h (0 Bft)
10/11/2008 10:00 15,4 C 74 % 1028,2 hPa 0,0 l/m 2,4 km/h (1 Bft) E 1,00 h 0,127 mm 376 W/m 10,7 C 15,4 C 4,1 km/h (1 Bft)
10/11/2008 11:00 16,4 C 73 % 1027,9 hPa 0,0 l/m 3,6 km/h (1 Bft) E-SE 1,00 h 0,203 mm 440 W/m 11,7 C 16,4 C 5,9 km/h (2 Bft)
10/11/2008 12:00 17,0 C 75 % 1027,1 hPa 0,0 l/m 5,7 km/h (1 Bft) S-SE 1,00 h 0,254 mm 459 W/m 12,4 C 17,0 C 8,4 km/h (2 Bft)
10/11/2008 13:00 17,0 C 76 % 1026,5 hPa 0,0 l/m 8,6 km/h (2 Bft) S-SE 1,00 h 0,279 mm 419 W/m 12,7 C 17,0 C 12,3 km/h (3 Bft)
10/11/2008 14:00 16,9 C 73 % 1026,0 hPa 0,0 l/m 11,1 km/h (2 Bft) S-SO 1,00 h 0,254 mm 324 W/m 12,0 C 16,9 C 15,1 km/h (3 Bft)
10/11/2008 15:00 16,1 C 78 % 1025,7 hPa 0,0 l/m 10,5 km/h (2 Bft) S-SO 0,42 h 0,229 mm 130 W/m 12,2 C 16,1 C 14,6 km/h (3 Bft)
10/11/2008 16:00 14,4 C 85 % 1025,4 hPa 0,0 l/m 4,2 km/h (1 Bft) SO 0,00 h 0,102 mm 25 W/m 12,0 C 14,4 C 6,0 km/h (2 Bft)
10/11/2008 17:00 13,4 C 87 % 1025,5 hPa 0,0 l/m 0,3 km/h (0 Bft) SO 0,00 h 0,025 mm 6 W/m 11,4 C 13,4 C 0,5 km/h (0 Bft)
10/11/2008 18:00 12,8 C 89 % 1025,7 hPa 0,0 l/m 2,3 km/h (1 Bft) SO 0,00 h 0,000 mm 0 W/m 11,0 C 12,8 C 3,5 km/h (1 Bft)
10/11/2008 19:00 12,2 C 89 % 1025,7 hPa 0,0 l/m 1,9 km/h (1 Bft) O 0,00 h 0,025 mm 0 W/m 10,5 C 12,2 C 2,8 km/h (1 Bft)
10/11/2008 20:00 11,3 C 90 % 1025,6 hPa 0,0 l/m 5,4 km/h (1 Bft) O-NO 0,00 h 0,025 mm 0 W/m 9,8 C 11,3 C 7,5 km/h (2 Bft)
10/11/2008 21:00 11,1 C 91 % 1025,3 hPa 0,0 l/m 4,4 km/h (1 Bft) O-NO 0,00 h 0,025 mm 0 W/m 9,7 C 11,1 C 6,0 km/h (2 Bft)
10/11/2008 22:00 10,4 C 92 % 1025,1 hPa 0,0 l/m 3,2 km/h (1 Bft) NO 0,00 h 0,025 mm 0 W/m 9,2 C 10,4 C 5,3 km/h (1 Bft)
10/11/2008 23:00 10,2 C 92 % 1024,8 hPa 0,0 l/m 4,3 km/h (1 Bft) O-NO 0,00 h 0,025 mm 0 W/m 8,9 C 10,2 C 5,7 km/h (1 Bft)
11/11/2008 00:00 10,2 C 91 % 1024,4 hPa 0,0 l/m 6,5 km/h (2 Bft) O 0,00 h 0,025 mm 0 W/m 8,8 C 10,0 C 8,6 km/h (2 Bft)
11/11/2008 01:00 9,7 C 89 % 1023,9 hPa 0,0 l/m 5,9 km/h (2 Bft) O-NO 0,00 h 0,025 mm 0 W/m 8,0 C 9,2 C 8,4 km/h (2 Bft)
11/11/2008 02:00 9,8 C 87 % 1023,5 hPa 0,0 l/m 3,4 km/h (1 Bft) NO 0,00 h 0,025 mm 0 W/m 7,9 C 9,7 C 4,7 km/h (1 Bft)
11/11/2008 03:00 10,2 C 88 % 1023,0 hPa 0,0 l/m 2,6 km/h (1 Bft) NO 0,00 h 0,025 mm 0 W/m 8,3 C 10,2 C 4,0 km/h (1 Bft)
11/11/2008 04:00 10,9 C 87 % 1022,4 hPa 0,0 l/m 2,1 km/h (1 Bft) O-SO 0,00 h 0,025 mm 0 W/m 8,9 C 10,9 C 3,0 km/h (1 Bft)
11/11/2008 05:00 11,3 C 84 % 1022,2 hPa 0,0 l/m 2,5 km/h (1 Bft) O-SO 0,00 h 0,025 mm 0 W/m 8,6 C 11,3 C 3,4 km/h (1 Bft)
11/11/2008 06:00 11,5 C 79 % 1021,8 hPa 0,0 l/m 4,4 km/h (1 Bft) O-NO 0,00 h 0,025 mm 0 W/m 8,0 C 11,5 C 6,5 km/h (2 Bft)
11/11/2008 07:00 11,8 C 76 % 1021,7 hPa 0,0 l/m 3,2 km/h (1 Bft) O-NO 0,00 h 0,025 mm 10 W/m 7,7 C 11,8 C 4,6 km/h (1 Bft)
11/11/2008 08:00 11,8 C 78 % 1022,1 hPa 0,0 l/m 1,0 km/h (0 Bft) O-NO 0,00 h 0,025 mm 38 W/m 8,1 C 11,8 C 1,7 km/h (1 Bft)
11/11/2008 09:00 13,1 C 77 % 1022,0 hPa 0,0 l/m 0,6 km/h (0 Bft) O-NO 0,45 h 0,025 mm 199 W/m 9,1 C 13,1 C 1,3 km/h (1 Bft)
11/11/2008 10:00 15,4 C 73 % 1021,6 hPa 0,0 l/m 2,7 km/h (1 Bft) S-SO 0,73 h 0,102 mm 297 W/m 10,5 C 15,4 C 4,5 km/h (1 Bft)
11/11/2008 11:00 15,6 C 76 % 1021,0 hPa 0,0 l/m 8,6 km/h (2 Bft) SO 0,38 h 0,178 mm 242 W/m 11,3 C 15,6 C 11,9 km/h (2 Bft)
11/11/2008 12:00 17,5 C 69 % 1019,6 hPa 0,0 l/m 15,0 km/h (3 Bft) SO 1,00 h 0,178 mm 447 W/m 11,7 C 17,5 C 20,4 km/h (4 Bft)
11/11/2008 13:00 17,8 C 70 % 1018,7 hPa 0,0 l/m 17,1 km/h (3 Bft) S-SO 1,00 h 0,305 mm 360 W/m 12,2 C 17,8 C 22,5 km/h (4 Bft)
11/11/2008 14:00 17,2 C 75 % 1018,1 hPa 0,0 l/m 15,8 km/h (3 Bft) SO 0,38 h 0,279 mm 213 W/m 12,7 C 17,2 C 21,3 km/h (4 Bft)
11/11/2008 15:00 16,1 C 76 % 1017,7 hPa 0,0 l/m 19,0 km/h (3 Bft) SO 0,00 h 0,178 mm 78 W/m 11,8 C 16,1 C 24,4 km/h (4 Bft)
11/11/2008 16:00 15,3 C 79 % 1017,5 hPa 0,0 l/m 23,3 km/h (4 Bft) SO 0,00 h 0,102 mm 22 W/m 11,7 C 15,3 C 29,8 km/h (5 Bft)
11/11/2008 17:00 14,7 C 81 % 1017,5 hPa 0,0 l/m 19,1 km/h (3 Bft) SO 0,00 h 0,076 mm 0 W/m 11,4 C 14,7 C 24,4 km/h (4 Bft)
11/11/2008 18:00 14,4 C 81 % 1017,5 hPa 0,0 l/m 10,0 km/h (2 Bft) O-SO 0,00 h 0,051 mm 0 W/m 11,2 C 14,4 C 14,1 km/h (3 Bft)
11/11/2008 19:00 14,0 C 85 % 1017,6 hPa 0,0 l/m 9,4 km/h (2 Bft) O-SO 0,00 h 0,051 mm 0 W/m 11,4 C 14,0 C 12,8 km/h (3 Bft)
11/11/2008 20:00 13,5 C 87 % 1017,6 hPa 0,0 l/m 8,7 km/h (2 Bft) O-SO 0,00 h 0,025 mm 0 W/m 11,4 C 13,5 C 12,2 km/h (2 Bft)
11/11/2008 21:00 13,4 C 87 % 1017,5 hPa 0,0 l/m 4,9 km/h (1 Bft) O-SO 0,00 h 0,025 mm 0 W/m 11,3 C 13,4 C 7,1 km/h (2 Bft)
11/11/2008 22:00 13,2 C 87 % 1017,3 hPa 0,0 l/m 7,9 km/h (2 Bft) O-NO 0,00 h 0,025 mm 0 W/m 11,1 C 13,2 C 10,9 km/h (2 Bft)
11/11/2008 23:00 13,3 C 87 % 1016,9 hPa 0,0 l/m 6,8 km/h (2 Bft) O-NO 0,00 h 0,025 mm 0 W/m 11,1 C 13,3 C 8,8 km/h (2 Bft)
12/11/2008 00:00 13,0 C 88 % 1016,6 hPa 0,0 l/m 2,5 km/h (1 Bft) N 0,00 h 0,025 mm 0 W/m 11,0 C 13,0 C 4,1 km/h (1 Bft)
12/11/2008 01:00 12,8 C 90 % 1016,2 hPa 0,8 l/m 1,1 km/h (1 Bft) NO 0,00 h 0,025 mm 0 W/m 11,1 C 12,8 C 1,6 km/h (1 Bft)
12/11/2008 02:00 12,7 C 91 % 1015,8 hPa 0,0 l/m 0,9 km/h (0 Bft) N 0,00 h 0,025 mm 0 W/m 11,2 C 12,7 C 1,5 km/h (1 Bft)
12/11/2008 03:00 12,5 C 91 % 1015,5 hPa 0,0 l/m 1,0 km/h (0 Bft) N 0,00 h 0,025 mm 0 W/m 11,1 C 12,5 C 1,6 km/h (1 Bft)
12/11/2008 04:00 12,4 C 92 % 1015,0 hPa 0,0 l/m 1,5 km/h (1 Bft) O 0,00 h 0,000 mm 0 W/m 11,1 C 12,4 C 2,4 km/h (1 Bft)
12/11/2008 05:00 12,4 C 92 % 1014,9 hPa 0,0 l/m 2,3 km/h (1 Bft) O-NO 0,00 h 0,000 mm 0 W/m 11,2 C 12,4 C 3,6 km/h (1 Bft)
12/11/2008 06:00 12,4 C 93 % 1014,5 hPa 0,0 l/m 0,7 km/h (0 Bft) O-NO 0,00 h 0,025 mm 0 W/m 11,3 C 12,4 C 1,2 km/h (1 Bft)
12/11/2008 07:00 12,0 C 93 % 1014,5 hPa 0,0 l/m 0,2 km/h (0 Bft) O-NO 0,00 h 0,000 mm 18 W/m 10,9 C 12,0 C 0,4 km/h (0 Bft)
12/11/2008 08:00 12,3 C 94 % 1014,9 hPa 0,0 l/m 1,8 km/h (1 Bft) O-NO 0,12 h 0,000 mm 75 W/m 11,3 C 12,3 C 2,4 km/h (1 Bft)
12/11/2008 09:00 13,3 C 94 % 1014,9 hPa 0,0 l/m 0,1 km/h (0 Bft) O-NO 0,22 h 0,051 mm 139 W/m 12,5 C 13,3 C 0,3 km/h (0 Bft)
12/11/2008 10:00 14,1 C 92 % 1014,8 hPa 0,0 l/m 1,9 km/h (1 Bft) O-NO 0,48 h 0,076 mm 224 W/m 12,9 C 14,1 C 2,9 km/h (1 Bft)
12/11/2008 11:00 15,2 C 87 % 1014,5 hPa 0,0 l/m 4,5 km/h (1 Bft) SO 0,45 h 0,127 mm 271 W/m 13,1 C 15,2 C 6,5 km/h (2 Bft)
12/11/2008 12:00 15,9 C 82 % 1013,4 hPa 0,0 l/m 1,5 km/h (1 Bft) SO 0,33 h 0,152 mm 263 W/m 12,9 C 15,9 C 2,9 km/h (1 Bft)
12/11/2008 13:00 15,6 C 82 % 1012,9 hPa 0,0 l/m 5,9 km/h (2 Bft) S-SE 0,00 h 0,152 mm 119 W/m 12,6 C 15,6 C 7,9 km/h (2 Bft)
12/11/2008 14:00 15,1 C 85 % 1012,5 hPa 0,0 l/m 2,3 km/h (1 Bft) SO 0,00 h 0,076 mm 72 W/m 12,6 C 15,1 C 3,6 km/h (1 Bft)
12/11/2008 15:00 15,0 C 87 % 1012,2 hPa 0,0 l/m 2,3 km/h (1 Bft) SO 0,00 h 0,051 mm 59 W/m 12,7 C 15,0 C 3,7 km/h (1 Bft)
12/11/2008 16:00 13,8 C 87 % 1012,2 hPa 0,0 l/m 1,9 km/h (1 Bft) S-SE 0,57 h 0,051 mm 41 W/m 11,7 C 13,8 C 3,0 km/h (1 Bft)
12/11/2008 17:00 12,6 C 86 % 1012,2 hPa 0,0 l/m 1,6 km/h (1 Bft) NO 0,00 h 0,025 mm 15 W/m 10,4 C 12,6 C 2,2 km/h (1 Bft)
12/11/2008 18:00 12,6 C 88 % 1012,1 hPa 0,0 l/m 3,3 km/h (1 Bft) O-NO 0,00 h 0,000 mm 0 W/m 10,6 C 12,6 C 5,0 km/h (1 Bft)
12/11/2008 19:00 12,2 C 89 % 1012,3 hPa 0,0 l/m 3,8 km/h (1 Bft) O-NO 0,00 h 0,025 mm 0 W/m 10,5 C 12,2 C 5,6 km/h (1 Bft)
12/11/2008 20:00 12,1 C 90 % 1012,0 hPa 0,0 l/m 1,6 km/h (1 Bft) O-NO 0,00 h 0,025 mm 0 W/m 10,5 C 12,1 C 3,0 km/h (1 Bft)
12/11/2008 21:00 11,7 C 89 % 1012,1 hPa 0,0 l/m 2,5 km/h (1 Bft) N-NO 0,00 h 0,025 mm 0 W/m 10,0 C 11,7 C 3,8 km/h (1 Bft)
12/11/2008 22:00 11,8 C 89 % 1012,0 hPa 0,0 l/m 2,5 km/h (1 Bft) O-NO 0,00 h 0,025 mm 0 W/m 10,0 C 11,8 C 4,1 km/h (1 Bft)
12/11/2008 23:00 11,6 C 88 % 1012,0 hPa 0,2 l/m 1,2 km/h (1 Bft) E-NE 0,00 h 0,025 mm 0 W/m 9,6 C 11,6 C 2,2 km/h (1 Bft)
13/11/2008 00:00 11,0 C 88 % 1012,0 hPa 0,2 l/m 2,5 km/h (1 Bft) N-NE 0,00 h 0,025 mm 0 W/m 9,0 C 11,0 C 4,2 km/h (1 Bft)
13/11/2008 01:00 10,9 C 89 % 1011,6 hPa 0,0 l/m 3,6 km/h (1 Bft) N 0,00 h 0,025 mm 0 W/m 9,1 C 10,9 C 6,1 km/h (2 Bft)
13/11/2008 02:00 11,5 C 90 % 1011,2 hPa 0,0 l/m 6,3 km/h (2 Bft) N-NE 0,00 h 0,025 mm 0 W/m 9,8 C 11,5 C 9,9 km/h (2 Bft)
13/11/2008 03:00 11,4 C 90 % 1010,9 hPa 1,0 l/m 2,3 km/h (1 Bft) N 0,00 h 0,025 mm 0 W/m 9,8 C 11,4 C 4,2 km/h (1 Bft)
13/11/2008 04:00 11,0 C 91 % 1010,6 hPa 0,2 l/m 3,6 km/h (1 Bft) NO 0,00 h 0,025 mm 0 W/m 9,5 C 11,0 C 5,7 km/h (1 Bft)
13/11/2008 05:00 10,8 C 91 % 1010,6 hPa 0,0 l/m 3,7 km/h (1 Bft) N-NO 0,00 h 0,025 mm 0 W/m 9,4 C 10,8 C 5,8 km/h (1 Bft)
13/11/2008 06:00 10,4 C 92 % 1010,3 hPa 0,0 l/m 3,9 km/h (1 Bft) NO 0,00 h 0,025 mm 0 W/m 9,2 C 10,4 C 5,8 km/h (2 Bft)
13/11/2008 07:00 10,0 C 93 % 1010,4 hPa 0,0 l/m 5,2 km/h (1 Bft) O-NO 0,00 h 0,025 mm 9 W/m 8,9 C 9,6 C 7,8 km/h (2 Bft)
13/11/2008 08:00 10,4 C 93 % 1010,8 hPa 0,2 l/m 7,4 km/h (2 Bft) O 0,00 h 0,000 mm 42 W/m 9,3 C 10,3 C 10,0 km/h (2 Bft)
13/11/2008 09:00 11,3 C 92 % 1011,0 hPa 0,0 l/m 7,8 km/h (2 Bft) O 0,00 h 0,025 mm 104 W/m 10,0 C 11,3 C 10,2 km/h (2 Bft)
13/11/2008 10:00 12,6 C 89 % 1011,0 hPa 0,0 l/m 4,8 km/h (1 Bft) O-SO 0,00 h 0,051 mm 133 W/m 10,8 C 12,6 C 7,3 km/h (2 Bft)
13/11/2008 11:00 13,3 C 87 % 1010,9 hPa 0,0 l/m 3,5 km/h (1 Bft) O-SO 0,00 h 0,076 mm 148 W/m 11,2 C 13,3 C 5,5 km/h (1 Bft)
13/11/2008 12:00 13,9 C 84 % 1010,4 hPa 0,0 l/m 3,6 km/h (1 Bft) SO 0,00 h 0,076 mm 169 W/m 11,2 C 13,9 C 5,4 km/h (1 Bft)
13/11/2008 13:00 14,3 C 82 % 1009,9 hPa 0,0 l/m 6,8 km/h (2 Bft) SO 0,00 h 0,102 mm 200 W/m 11,2 C 14,3 C 9,8 km/h (2 Bft)
13/11/2008 14:00 14,9 C 79 % 1009,9 hPa 0,0 l/m 2,6 km/h (1 Bft) S-SO 0,35 h 0,127 mm 201 W/m 11,3 C 14,9 C 3,9 km/h (1 Bft)
13/11/2008 15:00 15,3 C 79 % 1010,0 hPa 0,0 l/m 0,5 km/h (0 Bft) S-SO 1,00 h 0,127 mm 182 W/m 11,6 C 15,3 C 1,2 km/h (1 Bft)
13/11/2008 16:00 15,4 C 77 % 1010,4 hPa 0,0 l/m 0,7 km/h (0 Bft) S-SO 0,97 h 0,102 mm 101 W/m 11,4 C 15,4 C 1,3 km/h (1 Bft)
13/11/2008 17:00 13,8 C 80 % 1010,7 hPa 0,0 l/m 2,5 km/h (1 Bft) NE 0,00 h 0,051 mm 10 W/m 10,4 C 13,8 C 3,5 km/h (1 Bft)
13/11/2008 18:00 12,2 C 83 % 1011,2 hPa 0,0 l/m 0,4 km/h (0 Bft) NE 0,00 h 0,025 mm 0 W/m 9,3 C 12,2 C 1,1 km/h (1 Bft)
13/11/2008 19:00 11,6 C 85 % 1011,7 hPa 0,0 l/m 1,2 km/h (1 Bft) N 0,00 h 0,025 mm 0 W/m 9,3 C 11,6 C 2,4 km/h (1 Bft)
13/11/2008 20:00 11,5 C 86 % 1012,0 hPa 0,0 l/m 3,5 km/h (1 Bft) NO 0,00 h 0,025 mm 0 W/m 9,2 C 11,5 C 5,1 km/h (1 Bft)
13/11/2008 21:00 11,3 C 86 % 1012,3 hPa 0,0 l/m 3,7 km/h (1 Bft) O-NO 0,00 h 0,025 mm 0 W/m 9,0 C 11,3 C 5,4 km/h (1 Bft)
13/11/2008 22:00 10,8 C 84 % 1012,3 hPa 0,0 l/m 5,6 km/h (1 Bft) O 0,00 h 0,025 mm 0 W/m 8,2 C 10,8 C 8,2 km/h (2 Bft)
13/11/2008 23:00 10,9 C 80 % 1012,5 hPa 0,0 l/m 5,4 km/h (1 Bft) O-NO 0,00 h 0,025 mm 0 W/m 7,7 C 10,9 C 8,2 km/h (2 Bft)
14/11/2008 00:00 11,4 C 76 % 1012,8 hPa 0,0 l/m 4,1 km/h (1 Bft) O-NO 0,00 h 0,025 mm 0 W/m 7,3 C 11,4 C 5,7 km/h (1 Bft)
14/11/2008 01:00 11,1 C 74 % 1012,9 hPa 0,0 l/m 4,8 km/h (1 Bft) O-NO 0,00 h 0,025 mm 0 W/m 6,8 C 11,1 C 6,8 km/h (2 Bft)
14/11/2008 02:00 11,3 C 73 % 1013,2 hPa 0,0 l/m 8,4 km/h (2 Bft) O 0,00 h 0,025 mm 0 W/m 6,6 C 11,3 C 11,9 km/h (2 Bft)
14/11/2008 03:00 11,7 C 67 % 1013,2 hPa 0,0 l/m 7,7 km/h (2 Bft) O-NO 0,00 h 0,051 mm 0 W/m 5,8 C 11,7 C 10,8 km/h (2 Bft)
14/11/2008 04:00 11,2 C 69 % 1013,3 hPa 0,0 l/m 3,9 km/h (1 Bft) NO 0,00 h 0,051 mm 0 W/m 5,7 C 11,2 C 5,5 km/h (1 Bft)
14/11/2008 05:00 10,8 C 68 % 1013,7 hPa 0,0 l/m 4,6 km/h (1 Bft) O-NO 0,00 h 0,025 mm 0 W/m 5,1 C 10,8 C 6,6 km/h (2 Bft)
14/11/2008 06:00 10,8 C 67 % 1014,1 hPa 0,0 l/m 6,8 km/h (2 Bft) O 0,00 h 0,051 mm 0 W/m 4,9 C 10,8 C 9,6 km/h (2 Bft)
14/11/2008 07:00 10,6 C 65 % 1014,4 hPa 0,0 l/m 6,5 km/h (2 Bft) O-NO 0,00 h 0,051 mm 12 W/m 4,3 C 10,6 C 9,5 km/h (2 Bft)
14/11/2008 08:00 11,0 C 65 % 1015,3 hPa 0,0 l/m 5,8 km/h (2 Bft) O-NO 0,00 h 0,025 mm 46 W/m 4,7 C 11,0 C 7,8 km/h (2 Bft)
14/11/2008 09:00 13,4 C 60 % 1016,0 hPa 0,0 l/m 5,8 km/h (2 Bft) O 0,45 h 0,051 mm 208 W/m 5,8 C 13,4 C 8,2 km/h (2 Bft)
14/11/2008 10:00 16,2 C 59 % 1016,1 hPa 0,0 l/m 1,7 km/h (1 Bft) O-NO 0,32 h 0,127 mm 210 W/m 8,1 C 16,2 C 2,8 km/h (1 Bft)
14/11/2008 11:00 15,9 C 64 % 1016,5 hPa 0,0 l/m 4,7 km/h (1 Bft) O 0,18 h 0,127 mm 207 W/m 9,1 C 15,9 C 6,7 km/h (2 Bft)
14/11/2008 12:00 16,8 C 58 % 1016,3 hPa 0,0 l/m 5,9 km/h (2 Bft) O-SO 0,27 h 0,127 mm 244 W/m 8,5 C 16,8 C 8,1 km/h (2 Bft)
14/11/2008 13:00 16,3 C 61 % 1016,2 hPa 0,0 l/m 7,3 km/h (2 Bft) O-SO 0,10 h 0,178 mm 185 W/m 8,8 C 16,3 C 10,2 km/h (2 Bft)
14/11/2008 14:00 17,0 C 57 % 1016,2 hPa 0,0 l/m 7,1 km/h (2 Bft) SO 0,33 h 0,152 mm 192 W/m 8,4 C 17,0 C 9,6 km/h (2 Bft)
14/11/2008 15:00 16,8 C 59 % 1016,3 hPa 0,0 l/m 4,1 km/h (1 Bft) O-SO 0,20 h 0,152 mm 94 W/m 8,6 C 16,8 C 5,7 km/h (1 Bft)
14/11/2008 16:00 16,0 C 60 % 1016,6 hPa 0,0 l/m 3,9 km/h (1 Bft) O-SO 0,00 h 0,076 mm 20 W/m 8,3 C 16,0 C 5,4 km/h (1 Bft)
14/11/2008 17:00 15,5 C 60 % 1017,2 hPa 0,0 l/m 5,4 km/h (1 Bft) O 0,00 h 0,051 mm 5 W/m 7,7 C 15,5 C 8,0 km/h (2 Bft)
14/11/2008 18:00 15,3 C 57 % 1017,6 hPa 0,0 l/m 4,6 km/h (1 Bft) NE 0,00 h 0,025 mm 0 W/m 6,9 C 15,3 C 6,7 km/h (2 Bft)
14/11/2008 19:00 14,4 C 62 % 1018,1 hPa 0,0 l/m 3,4 km/h (1 Bft) O-NO 0,00 h 0,051 mm 0 W/m 7,3 C 14,4 C 4,8 km/h (1 Bft)
14/11/2008 20:00 13,7 C 64 % 1018,2 hPa 0,0 l/m 3,8 km/h (1 Bft) O-NO 0,00 h 0,051 mm 0 W/m 7,1 C 13,7 C 5,6 km/h (1 Bft)
14/11/2008 21:00 12,4 C 67 % 1018,2 hPa 0,0 l/m 3,6 km/h (1 Bft) N-NE 0,00 h 0,051 mm 0 W/m 6,4 C 12,4 C 5,4 km/h (1 Bft)
14/11/2008 22:00 12,2 C 66 % 1018,2 hPa 0,0 l/m 6,0 km/h (2 Bft) O 0,00 h 0,051 mm 0 W/m 6,0 C 12,2 C 8,5 km/h (2 Bft)
14/11/2008 23:00 12,2 C 62 % 1018,1 hPa 0,0 l/m 4,2 km/h (1 Bft) O-NO 0,00 h 0,051 mm 0 W/m 5,3 C 12,2 C 5,8 km/h (2 Bft)
15/11/2008 00:00 12,3 C 60 % 1018,3 hPa 0,0 l/m 5,1 km/h (1 Bft) NO 0,00 h 0,051 mm 0 W/m 4,7 C 12,3 C 6,9 km/h (2 Bft)
15/11/2008 01:00 12,5 C 58 % 1018,6 hPa 0,0 l/m 8,5 km/h (2 Bft) O 0,00 h 0,051 mm 0 W/m 4,4 C 12,5 C 11,8 km/h (2 Bft)
15/11/2008 02:00 11,6 C 60 % 1019,0 hPa 0,0 l/m 7,3 km/h (2 Bft) O 0,00 h 0,076 mm 0 W/m 4,1 C 11,6 C 10,6 km/h (2 Bft)
15/11/2008 03:00 11,1 C 62 % 1019,1 hPa 0,0 l/m 9,6 km/h (2 Bft) O 0,00 h 0,051 mm 0 W/m 4,1 C 11,1 C 13,3 km/h (3 Bft)
15/11/2008 04:00 11,2 C 61 % 1019,0 hPa 0,0 l/m 11,0 km/h (2 Bft) O-NO 0,00 h 0,051 mm 0 W/m 3,9 C 11,2 C 15,9 km/h (3 Bft)
15/11/2008 05:00 11,2 C 61 % 1019,1 hPa 0,0 l/m 7,5 km/h (2 Bft) O 0,00 h 0,076 mm 0 W/m 3,9 C 11,2 C 11,8 km/h (2 Bft)
15/11/2008 06:00 11,2 C 61 % 1019,2 hPa 0,0 l/m 11,0 km/h (2 Bft) O 0,00 h 0,051 mm 0 W/m 3,8 C 11,2 C 15,9 km/h (3 Bft)
15/11/2008 07:00 11,6 C 59 % 1019,7 hPa 0,0 l/m 9,2 km/h (2 Bft) O-NO 0,28 h 0,076 mm 20 W/m 3,9 C 11,6 C 13,9 km/h (3 Bft)
15/11/2008 08:00 12,4 C 60 % 1020,3 hPa 0,0 l/m 3,4 km/h (1 Bft) O-NO 1,00 h 0,051 mm 121 W/m 4,8 C 12,4 C 5,4 km/h (1 Bft)
15/11/2008 09:00 15,6 C 54 % 1020,6 hPa 0,0 l/m 3,0 km/h (1 Bft) O 1,00 h 0,076 mm 253 W/m 6,3 C 15,6 C 4,7 km/h (1 Bft)
15/11/2008 10:00 17,8 C 51 % 1020,8 hPa 0,0 l/m 2,0 km/h (1 Bft) S-SE 1,00 h 0,152 mm 363 W/m 7,4 C 17,8 C 3,3 km/h (1 Bft)
15/11/2008 11:00 17,9 C 50 % 1021,1 hPa 0,0 l/m 6,4 km/h (2 Bft) S-SE 1,00 h 0,229 mm 426 W/m 7,5 C 17,9 C 9,6 km/h (2 Bft)
15/11/2008 12:00 18,3 C 52 % 1020,8 hPa 0,0 l/m 4,6 km/h (1 Bft) SE 1,00 h 0,279 mm 441 W/m 8,2 C 18,3 C 7,4 km/h (2 Bft)
15/11/2008 13:00 18,7 C 49 % 1020,2 hPa 0,0 l/m 3,9 km/h (1 Bft) SE 1,00 h 0,279 mm 400 W/m 7,9 C 18,7 C 6,8 km/h (2 Bft)
15/11/2008 14:00 18,1 C 53 % 1020,1 hPa 0,0 l/m 4,0 km/h (1 Bft) SE 1,00 h 0,254 mm 311 W/m 8,2 C 18,1 C 7,3 km/h (2 Bft)
15/11/2008 15:00 17,3 C 58 % 1020,2 hPa 0,0 l/m 4,3 km/h (1 Bft) S-SE 1,00 h 0,203 mm 183 W/m 8,9 C 17,3 C 7,9 km/h (2 Bft)
15/11/2008 16:00 16,7 C 60 % 1020,1 hPa 0,0 l/m 2,8 km/h (1 Bft) S 0,78 h 0,127 mm 55 W/m 8,8 C 16,7 C 4,2 km/h (1 Bft)
15/11/2008 17:00 14,4 C 67 % 1020,1 hPa 0,0 l/m 7,0 km/h (2 Bft) O-SO 0,00 h 0,051 mm 6 W/m 8,2 C 14,4 C 9,9 km/h (2 Bft)
15/11/2008 18:00 13,5 C 70 % 1020,9 hPa 0,0 l/m 9,7 km/h (2 Bft) O 0,00 h 0,051 mm 0 W/m 8,3 C 13,5 C 13,9 km/h (3 Bft)
15/11/2008 19:00 13,5 C 68 % 1021,4 hPa 0,0 l/m 12,3 km/h (3 Bft) O 0,00 h 0,051 mm 0 W/m 7,8 C 13,5 C 16,6 km/h (3 Bft)
15/11/2008 20:00 13,4 C 68 % 1021,1 hPa 0,0 l/m 14,9 km/h (3 Bft) O-NO 0,00 h 0,076 mm 0 W/m 7,6 C 13,4 C 19,1 km/h (3 Bft)
15/11/2008 21:00 13,2 C 67 % 1020,6 hPa 0,0 l/m 10,1 km/h (2 Bft) O 0,00 h 0,076 mm 0 W/m 7,1 C 13,2 C 13,7 km/h (3 Bft)
15/11/2008 22:00 11,7 C 72 % 1020,7 hPa 0,0 l/m 4,8 km/h (1 Bft) N-NO 0,00 h 0,051 mm 0 W/m 6,8 C 11,7 C 7,0 km/h (2 Bft)
15/11/2008 23:00 11,3 C 72 % 1020,7 hPa 0,0 l/m 4,6 km/h (1 Bft) O 0,00 h 0,025 mm 0 W/m 6,4 C 11,3 C 6,1 km/h (2 Bft)
16/11/2008 00:00 11,5 C 68 % 1020,6 hPa 0,0 l/m 5,0 km/h (1 Bft) NO 0,00 h 0,025 mm 0 W/m 5,9 C 11,5 C 6,8 km/h (2 Bft)
16/11/2008 01:00 11,5 C 68 % 1020,3 hPa 0,0 l/m 5,1 km/h (1 Bft) O-NO 0,00 h 0,051 mm 0 W/m 5,9 C 11,5 C 6,6 km/h (2 Bft)
16/11/2008 02:00 11,0 C 67 % 1020,2 hPa 0,0 l/m 5,0 km/h (1 Bft) O-NO 0,00 h 0,051 mm 0 W/m 5,2 C 11,0 C 6,8 km/h (2 Bft)
16/11/2008 03:00 10,7 C 67 % 1019,9 hPa 0,0 l/m 4,3 km/h (1 Bft) O-NO 0,00 h 0,051 mm 0 W/m 4,8 C 10,7 C 6,3 km/h (2 Bft)
16/11/2008 04:00 10,6 C 66 % 1019,6 hPa 0,0 l/m 3,8 km/h (1 Bft) O-NO 0,00 h 0,051 mm 0 W/m 4,5 C 10,6 C 5,4 km/h (1 Bft)
16/11/2008 05:00 10,5 C 64 % 1019,7 hPa 0,0 l/m 5,3 km/h (1 Bft) O 0,00 h 0,025 mm 0 W/m 4,0 C 10,5 C 7,4 km/h (2 Bft)
16/11/2008 06:00 10,3 C 63 % 1019,5 hPa 0,0 l/m 4,3 km/h (1 Bft) O 0,00 h 0,051 mm 0 W/m 3,4 C 10,3 C 6,5 km/h (2 Bft)
16/11/2008 07:00 11,2 C 57 % 1019,8 hPa 0,0 l/m 4,7 km/h (1 Bft) NO 0,37 h 0,051 mm 23 W/m 3,0 C 11,2 C 6,3 km/h (2 Bft)
16/11/2008 08:00 12,7 C 53 % 1020,3 hPa 0,0 l/m 4,5 km/h (1 Bft) N-NO 1,00 h 0,025 mm 123 W/m 3,4 C 12,7 C 6,6 km/h (2 Bft)
16/11/2008 09:00 14,8 C 51 % 1020,4 hPa 0,0 l/m 1,1 km/h (1 Bft) N-NO 1,00 h 0,102 mm 259 W/m 4,8 C 14,8 C 2,2 km/h (1 Bft)
16/11/2008 10:00 16,8 C 49 % 1020,6 hPa 0,0 l/m 0,4 km/h (0 Bft) E-NE 1,00 h 0,152 mm 372 W/m 5,9 C 16,8 C 1,3 km/h (1 Bft)
16/11/2008 11:00 18,5 C 44 % 1020,7 hPa 0,0 l/m 2,9 km/h (1 Bft) S-SE 1,00 h 0,203 mm 440 W/m 5,9 C 18,5 C 4,8 km/h (1 Bft)
16/11/2008 12:00 19,3 C 42 % 1020,2 hPa 0,0 l/m 3,0 km/h (1 Bft) S-SO 1,00 h 0,279 mm 453 W/m 6,0 C 19,3 C 5,4 km/h (1 Bft)
16/11/2008 13:00 19,9 C 39 % 1019,9 hPa 0,0 l/m 3,9 km/h (1 Bft) S 1,00 h 0,279 mm 411 W/m 5,3 C 19,9 C 6,3 km/h (2 Bft)
16/11/2008 14:00 19,2 C 39 % 1019,7 hPa 0,0 l/m 2,3 km/h (1 Bft) NE 1,00 h 0,279 mm 323 W/m 5,0 C 19,2 C 4,6 km/h (1 Bft)
16/11/2008 15:00 19,5 C 40 % 1019,6 hPa 0,0 l/m 0,4 km/h (0 Bft) NE 1,00 h 0,203 mm 194 W/m 5,5 C 19,5 C 1,3 km/h (1 Bft)
16/11/2008 16:00 17,8 C 46 % 1019,6 hPa 0,0 l/m 2,6 km/h (1 Bft) S 0,85 h 0,127 mm 59 W/m 5,9 C 17,8 C 4,0 km/h (1 Bft)
16/11/2008 17:00 15,0 C 52 % 1019,8 hPa 0,0 l/m 6,1 km/h (2 Bft) O-NO 0,00 h 0,051 mm 6 W/m 5,3 C 15,0 C 7,3 km/h (2 Bft)
16/11/2008 18:00 13,6 C 58 % 1020,0 hPa 0,0 l/m 7,4 km/h (2 Bft) O-NO 0,00 h 0,051 mm 0 W/m 5,4 C 13,6 C 9,8 km/h (2 Bft)
16/11/2008 19:00 12,3 C 60 % 1020,0 hPa 0,0 l/m 6,2 km/h (2 Bft) O-NO 0,00 h 0,076 mm 0 W/m 4,9 C 12,3 C 9,1 km/h (2 Bft)
16/11/2008 20:00 12,6 C 60 % 1019,9 hPa 0,0 l/m 5,2 km/h (1 Bft) NO 0,00 h 0,051 mm 0 W/m 5,0 C 12,6 C 7,2 km/h (2 Bft)
16/11/2008 21:00 12,5 C 59 % 1019,7 hPa 0,0 l/m 4,7 km/h (1 Bft) O-NO 0,00 h 0,051 mm 0 W/m 4,6 C 12,5 C 6,5 km/h (2 Bft)
16/11/2008 22:00 12,1 C 60 % 1019,6 hPa 0,0 l/m 4,3 km/h (1 Bft) NO 0,00 h 0,051 mm 0 W/m 4,4 C 12,1 C 6,4 km/h (2 Bft)
16/11/2008 23:00 12,2 C 57 % 1019,1 hPa 0,0 l/m 4,2 km/h (1 Bft) NO 0,00 h 0,051 mm 0 W/m 4,0 C 12,2 C 5,7 km/h (1 Bft)
Min-Date _ 10/11/08 16/11/08 13/11/08 - 10/11/08 - - - - 16/11/08 13/11/08 10/11/08
_ Min-Heure 07:37 13:25 13:45 - 03:09 - - - - 07:34 07:52 03:09
Minimum _ 9,4 C 34 % 1009,7 hPa - 0,0 km/h (0 Bft) - - - - 2,4 C 8,4 C 0,0 km/h (0 Bft)
Max-Date _ 16/11/08 12/11/08 10/11/08 13/11/08 11/11/08 - 10/11/08 11/11/08 14/11/08 11/11/08 16/11/08 11/11/08
_ Max-Heure 13:19 09:11 09:30 03:15 16:15 - 07:30 13:00 12:15 14:34 13:19 16:32
Maximum _ 20,5 C 95 % 1028,3 hPa 1,0 l/m 27,4 km/h
SO (4 Bft)
- 0,02 h 0,305 mm 656 W/m 13,6 C 20,5 C 35,4 km/h
SO (5 Bft)
Moyenne _ 13,2 C 74 % 1018,2 hPa #2,6 l/m 5,0 km/h (1 Bft) O-NO #36:19 h #12,373 mm 181 W/m 8,5 C 13,2 C 7,2 km/h (2 Bft)
Roquefort les pins